createdAt,value
2023-01-07T00:02:25.928Z,8.50
2023-01-07T00:06:49.984Z,8.60
2023-01-07T00:11:21.937Z,8.50
2023-01-07T00:15:43.930Z,8.50
2023-01-07T00:20:06.662Z,8.60
2023-01-07T00:24:28.585Z,8.50
2023-01-07T00:28:52.399Z,8.50
2023-01-07T00:33:15.790Z,8.50
2023-01-07T00:37:50.004Z,8.50
2023-01-07T00:42:30.738Z,8.50
2023-01-07T00:46:53.509Z,8.50
2023-01-07T00:51:18.180Z,8.50
2023-01-07T00:55:40.029Z,8.50
2023-01-07T01:00:01.747Z,8.50
2023-01-07T01:04:24.671Z,8.40
2023-01-07T01:08:47.868Z,8.40
2023-01-07T01:13:16.206Z,8.40
2023-01-07T01:17:41.031Z,8.40
2023-01-07T01:22:03.197Z,8.30
2023-01-07T01:26:25.404Z,8.20
2023-01-07T01:30:55.816Z,8.00
2023-01-07T01:35:20.219Z,7.80
2023-01-07T01:39:42.668Z,7.60
2023-01-07T01:45:00.110Z,7.50
2023-01-07T01:49:37.293Z,7.30
2023-01-07T01:53:59.809Z,7.30
2023-01-07T01:58:34.864Z,7.20
2023-01-07T02:02:59.532Z,7.10
2023-01-07T02:07:21.919Z,7.00
2023-01-07T02:12:06.356Z,6.90
2023-01-07T02:16:46.273Z,6.90
2023-01-07T02:21:26.054Z,6.90
2023-01-07T02:26:39.351Z,6.80
2023-01-07T02:31:42.531Z,6.70
2023-01-07T02:36:40.677Z,6.70
2023-01-07T02:41:58.929Z,6.60
2023-01-07T02:47:06.641Z,6.70
2023-01-07T02:51:38.001Z,6.80
2023-01-07T02:56:49.555Z,6.90
2023-01-07T03:01:34.229Z,7.00
2023-01-07T03:06:33.373Z,7.10
2023-01-07T03:11:04.199Z,7.20
2023-01-07T03:15:45.120Z,7.20
2023-01-07T03:20:08.006Z,7.20
2023-01-07T03:24:32.344Z,7.20
2023-01-07T03:28:56.190Z,7.30
2023-01-07T03:34:03.252Z,7.20
2023-01-07T03:38:27.695Z,7.20
2023-01-07T03:42:50.198Z,7.20
2023-01-07T03:47:16.811Z,7.10
2023-01-07T03:51:38.742Z,7.00
2023-01-07T03:56:00.817Z,7.00
2023-01-07T04:00:23.292Z,7.00
2023-01-07T04:04:50.768Z,6.90
2023-01-07T04:09:18.960Z,6.70
2023-01-07T04:13:41.314Z,6.60
2023-01-07T04:18:03.517Z,6.50
2023-01-07T04:22:25.679Z,6.40
2023-01-07T04:26:48.116Z,6.50
2023-01-07T04:31:10.194Z,6.50
2023-01-07T04:35:33.930Z,6.50
2023-01-07T04:39:57.365Z,6.50
2023-01-07T04:44:19.300Z,6.60
2023-01-07T04:48:41.197Z,6.80
2023-01-07T04:53:03.367Z,6.90
2023-01-07T04:57:26.460Z,7.00
2023-01-07T05:01:49.305Z,7.10
2023-01-07T05:06:12.127Z,7.20
2023-01-07T05:10:34.187Z,7.30
2023-01-07T05:14:57.297Z,7.40
2023-01-07T05:19:19.388Z,7.50
2023-01-07T05:23:43.986Z,7.50
2023-01-07T05:28:06.648Z,7.60
2023-01-07T05:32:31.671Z,7.70
2023-01-07T05:36:53.991Z,7.70
2023-01-07T05:41:16.171Z,7.70
2023-01-07T05:45:38.334Z,7.80
2023-01-07T05:50:00.213Z,7.80
2023-01-07T05:54:22.113Z,7.80
2023-01-07T05:58:43.898Z,7.90
2023-01-07T06:03:06.372Z,7.90
2023-01-07T06:07:28.072Z,7.90
2023-01-07T06:11:49.826Z,8.00
2023-01-07T06:16:13.953Z,8.00
2023-01-07T06:20:35.641Z,8.00
2023-01-07T06:24:57.874Z,8.00
2023-01-07T06:29:19.744Z,8.00
2023-01-07T06:33:41.624Z,8.00
2023-01-07T06:38:03.431Z,8.00
2023-01-07T06:42:25.801Z,8.00
2023-01-07T06:46:47.369Z,8.00
2023-01-07T06:51:09.731Z,8.00
2023-01-07T06:55:31.504Z,8.00
2023-01-07T06:59:53.659Z,8.00
2023-01-07T07:04:15.670Z,7.90
2023-01-07T07:08:37.841Z,7.90
2023-01-07T07:12:59.755Z,7.90
2023-01-07T07:17:21.575Z,8.00
2023-01-07T07:21:43.521Z,7.90
2023-01-07T07:26:05.706Z,8.00
2023-01-07T07:30:47.242Z,8.00
2023-01-07T07:35:10.593Z,8.00
2023-01-07T07:39:32.486Z,8.00
2023-01-07T07:43:54.374Z,8.00
2023-01-07T07:48:16.729Z,8.10
2023-01-07T07:52:40.078Z,8.10
2023-01-07T07:57:03.843Z,8.20
2023-01-07T08:01:25.835Z,8.20
2023-01-07T08:05:47.634Z,8.30
2023-01-07T08:10:10.018Z,8.40
2023-01-07T08:14:32.015Z,8.40
2023-01-07T08:18:53.613Z,8.40
2023-01-07T08:23:15.455Z,8.50
2023-01-07T08:27:37.349Z,8.50
2023-01-07T08:31:59.390Z,8.60
2023-01-07T08:36:23.508Z,8.50
2023-01-07T08:40:45.601Z,8.50
2023-01-07T08:45:09.697Z,8.40
2023-01-07T08:49:31.941Z,8.50
2023-01-07T08:53:55.486Z,8.50
2023-01-07T08:58:17.620Z,8.50
2023-01-07T09:02:39.961Z,8.60
2023-01-07T09:07:01.803Z,8.70
2023-01-07T09:11:23.816Z,8.80
2023-01-07T09:15:45.987Z,8.90
2023-01-07T09:20:09.006Z,9.00
2023-01-07T09:24:30.599Z,9.10
2023-01-07T09:28:52.524Z,9.30
2023-01-07T09:33:14.642Z,9.50
2023-01-07T09:37:37.293Z,10.00
2023-01-07T09:42:12.737Z,10.40
2023-01-07T09:46:35.028Z,10.60
2023-01-07T09:51:23.989Z,10.90
2023-01-07T09:56:11.848Z,11.30
2023-01-07T10:00:33.283Z,11.40
2023-01-07T10:05:13.408Z,11.50
2023-01-07T10:09:50.164Z,11.60
2023-01-07T10:14:26.981Z,11.70
2023-01-07T10:19:24.996Z,11.60
2023-01-07T10:23:55.387Z,11.90
2023-01-07T10:28:37.655Z,12.10
2023-01-07T10:33:17.824Z,12.00
2023-01-07T10:37:42.385Z,12.20
2023-01-07T10:42:10.297Z,12.50
2023-01-07T10:47:00.763Z,12.50
2023-01-07T10:52:04.888Z,12.40
2023-01-07T10:56:42.531Z,11.70
2023-01-07T11:01:06.941Z,11.50
2023-01-07T11:05:39.298Z,11.20
2023-01-07T11:10:04.922Z,11.00
2023-01-07T11:14:30.972Z,11.00
2023-01-07T11:19:10.024Z,10.80
2023-01-07T11:23:43.795Z,10.50
2023-01-07T11:28:18.962Z,10.30
2023-01-07T11:32:41.488Z,10.40
2023-01-07T11:37:05.293Z,10.50
2023-01-07T11:42:49.123Z,10.70
2023-01-07T11:47:17.614Z,11.00
2023-01-07T11:51:40.713Z,11.20
2023-01-07T11:56:05.966Z,11.20
2023-01-07T12:00:31.506Z,11.10
2023-01-07T12:05:13.499Z,10.80
2023-01-07T12:09:42.024Z,10.80
2023-01-07T12:14:23.881Z,11.10
2023-01-07T12:19:04.379Z,11.10
2023-01-07T12:23:34.094Z,11.10
2023-01-07T12:28:00.460Z,11.00
2023-01-07T12:32:51.512Z,10.80
2023-01-07T12:37:44.293Z,10.60
2023-01-07T12:42:26.702Z,10.60
2023-01-07T12:47:31.211Z,10.70
2023-01-07T12:52:08.248Z,10.80
2023-01-07T12:56:54.305Z,10.50
2023-01-07T13:01:42.248Z,10.20
2023-01-07T13:06:15.578Z,10.20
2023-01-07T13:11:02.849Z,10.20
2023-01-07T13:15:29.180Z,10.10
2023-01-07T13:19:52.157Z,10.00
2023-01-07T13:25:13.643Z,10.00
2023-01-07T13:30:07.088Z,9.80
2023-01-07T13:34:50.074Z,9.80
2023-01-07T13:39:40.672Z,9.90
2023-01-07T13:44:25.336Z,10.00
2023-01-07T13:48:53.968Z,10.00
2023-01-07T13:53:16.166Z,10.10
2023-01-07T13:57:40.969Z,10.10
2023-01-07T14:02:19.779Z,10.10
2023-01-07T14:06:46.632Z,10.10
2023-01-07T14:11:08.398Z,10.20
2023-01-07T14:15:50.333Z,10.10
2023-01-07T14:20:48.624Z,10.10
2023-01-07T14:25:49.004Z,10.10
2023-01-07T14:30:28.182Z,9.90
2023-01-07T14:35:10.811Z,9.90
2023-01-07T14:39:35.534Z,9.90
2023-01-07T14:44:29.569Z,9.80
2023-01-07T14:49:03.525Z,9.80
2023-01-07T14:54:09.132Z,9.70
2023-01-07T14:58:47.610Z,9.60
2023-01-07T15:04:08.296Z,9.50
2023-01-07T15:09:29.532Z,9.40
2023-01-07T15:14:23.210Z,9.40
2023-01-07T15:18:52.564Z,9.40
2023-01-07T15:23:52.575Z,9.30
2023-01-07T15:29:04.035Z,9.30
2023-01-07T15:33:44.678Z,9.20
2023-01-07T15:38:29.979Z,9.20
2023-01-07T15:42:55.510Z,9.20
2023-01-07T15:47:35.370Z,9.10
2023-01-07T15:52:01.856Z,9.00
2023-01-07T15:56:24.112Z,9.00
2023-01-07T16:00:53.711Z,8.70
2023-01-07T16:05:19.793Z,8.50
2023-01-07T16:09:52.873Z,8.20
2023-01-07T16:14:19.333Z,7.90
2023-01-07T16:18:42.054Z,7.70
2023-01-07T16:23:10.427Z,7.50
2023-01-07T16:27:32.614Z,7.50
2023-01-07T16:31:55.711Z,7.40
2023-01-07T16:36:38.351Z,7.30
2023-01-07T16:41:00.791Z,7.30
2023-01-07T16:45:30.194Z,7.30
2023-01-07T16:50:20.121Z,7.10
2023-01-07T16:54:46.577Z,6.90
2023-01-07T16:59:17.814Z,6.80
2023-01-07T17:03:53.184Z,6.60
2023-01-07T17:08:20.183Z,6.40
2023-01-07T17:12:42.575Z,6.20
2023-01-07T17:17:33.169Z,6.00
2023-01-07T17:21:56.911Z,5.70
2023-01-07T17:26:24.110Z,5.70
2023-01-07T17:30:46.132Z,5.80
2023-01-07T17:35:22.867Z,6.00
2023-01-07T17:39:45.119Z,6.30
2023-01-07T17:44:14.712Z,6.60
2023-01-07T17:48:37.135Z,6.80
2023-01-07T17:52:59.584Z,7.00
2023-01-07T17:57:21.735Z,7.20
2023-01-07T18:01:44.756Z,7.30
2023-01-07T18:06:20.197Z,7.30
2023-01-07T18:11:04.831Z,7.40
2023-01-07T18:15:27.610Z,7.50
2023-01-07T18:19:50.788Z,7.50
2023-01-07T18:24:21.476Z,7.60
2023-01-07T18:28:43.792Z,7.60
2023-01-07T18:33:08.015Z,7.60
2023-01-07T18:37:30.170Z,7.60
2023-01-07T18:41:54.090Z,7.60
2023-01-07T18:46:17.620Z,7.60
2023-01-07T18:50:45.458Z,7.60
2023-01-07T18:55:09.471Z,7.60
2023-01-07T18:59:31.873Z,7.50
2023-01-07T19:03:54.018Z,7.40
2023-01-07T19:08:16.290Z,7.20
2023-01-07T19:12:38.269Z,7.10
2023-01-07T19:17:00.896Z,7.00
2023-01-07T19:21:23.031Z,6.80
2023-01-07T19:25:46.269Z,6.70
2023-01-07T19:30:09.134Z,6.70
2023-01-07T19:34:31.351Z,6.70
2023-01-07T19:38:53.529Z,6.80
2023-01-07T19:43:15.762Z,6.70
2023-01-07T19:47:39.453Z,6.60
2023-01-07T19:52:01.382Z,6.50
2023-01-07T19:56:23.770Z,6.40
2023-01-07T20:00:45.911Z,6.40
2023-01-07T20:05:08.534Z,6.40
2023-01-07T20:09:31.090Z,6.30
2023-01-07T20:13:53.367Z,6.20
2023-01-07T20:18:17.593Z,6.00
2023-01-07T20:22:40.092Z,5.90
2023-01-07T20:27:02.410Z,5.80
2023-01-07T20:31:26.723Z,5.80
2023-01-07T20:35:48.551Z,5.70
2023-01-07T20:40:11.371Z,5.60
2023-01-07T20:44:34.799Z,5.50
2023-01-07T20:48:57.983Z,5.30
2023-01-07T20:53:20.451Z,5.20
2023-01-07T20:57:42.497Z,5.20
2023-01-07T21:02:04.657Z,5.10
2023-01-07T21:06:26.901Z,5.00
2023-01-07T21:10:48.850Z,5.00
2023-01-07T21:15:13.267Z,5.00
2023-01-07T21:19:37.270Z,5.00
2023-01-07T21:23:59.393Z,4.90
2023-01-07T21:28:21.493Z,4.80
2023-01-07T21:32:44.269Z,4.80
2023-01-07T21:37:06.128Z,4.70
2023-01-07T21:41:29.360Z,4.70
2023-01-07T21:45:51.429Z,4.60
2023-01-07T21:50:15.297Z,4.60
2023-01-07T21:54:38.009Z,4.50
2023-01-07T21:59:00.386Z,4.40
2023-01-07T22:03:22.580Z,4.30
2023-01-07T22:07:44.657Z,4.20
2023-01-07T22:12:06.750Z,4.30
2023-01-07T22:16:31.568Z,4.30
2023-01-07T22:20:56.134Z,4.40
2023-01-07T22:25:18.252Z,4.50
2023-01-07T22:29:40.379Z,4.60
2023-01-07T22:34:03.629Z,4.70
2023-01-07T22:38:27.995Z,4.70
2023-01-07T22:43:00.794Z,4.60
2023-01-07T22:47:29.284Z,4.60
2023-01-07T22:51:51.477Z,4.60
2023-01-07T22:56:14.230Z,4.70
2023-01-07T23:00:59.701Z,4.90
2023-01-07T23:05:22.055Z,4.90
2023-01-07T23:09:44.216Z,5.10
2023-01-07T23:14:06.228Z,5.20
2023-01-07T23:18:28.381Z,5.30
2023-01-07T23:22:50.762Z,5.30
2023-01-07T23:27:13.271Z,5.20
2023-01-07T23:31:36.874Z,5.20
2023-01-07T23:36:07.800Z,5.20
2023-01-07T23:40:30.560Z,5.30
2023-01-07T23:44:52.616Z,5.40
2023-01-07T23:49:14.653Z,5.50
2023-01-07T23:53:37.222Z,5.60
2023-01-07T23:57:59.161Z,5.60
